Terminal Aerodrome Forecast
Issued by NWS Twin Cities, MN

Home | Current Version | Previous Version | Graphics & Text | Print | Product List | Glossary On
Versions: 1 2 3 4 5 6 7 8 9 10 11 12 13 14 15 16 17 18 19
000
FTUS43 KMPX 261125
TAFSTC
TAF
KSTC 261125Z 2612/2712 19006KT P6SM BKN110
     FM261600 23011KT P6SM BKN100 BKN250
     FM270000 VRB04KT P6SM SCT050 BKN100 PROB30 2700/2706 5SM -TSRA
      BKN040CB
     FM270700 32004KT P6SM SCT040 BKN080=

USA.gov is the U.S. government's official web portal to all federal, state and local government web resources and services.